• Join FlightAware (Why Join?)
  • Login
  • US Flag 
12:16AM EST


 

Airport Tracker/Info


-or-


 

Live Flight TrackerFlight Track Log ✈ N108RJ ✈ 26-Jun-2014 ✈ KLWS - KUAO

Flight Track Log - Related Links

Times and Time Zones

All times are in EDT time to prevent confusion due to time zone crossing. See the N108RJ flight status page for this flight to view local times or setup timezone preferences in your user account.

Time Position Orientation Groundspeed Altitude Reporting Facility
EDT Latitude Longitude Course Direction KTS MPH feet Rate Location/Type
04:46PM 46.3939 -116.9739 265° West 131 151 4,500  Level Seattle Center
04:47PM 46.3903 -117.0347 265° West 159 183 6,900 1,980 Climbing Seattle Center
04:49PM 46.3714 -117.1639 254° West 161 185 10,600 1,740 Climbing Seattle Center
04:50PM 46.3572 -117.2356 254° West 179 206 12,400 1,620 Climbing Seattle Center
04:52PM 46.3322 -117.3967 270° West 193 222 15,700 1,500 Climbing Seattle Center
04:53PM 46.3186 -117.4744 256° West 197 227 17,100 1,500 Climbing Seattle Center
04:54PM 46.3053 -117.5486 255° West 195 224 18,800 1,380 Climbing Seattle Center
04:56PM 46.2794 -117.7083 250° West 203 234 21,400 1,200 Climbing Seattle Center
04:57PM 46.2658 -117.7894 256° West 205 236 22,500 1,020 Climbing Seattle Center
04:58PM 46.2522 -117.8747 257° West 214 246 23,500 360 Climbing Seattle Center
05:01PM 46.1969 -118.1528 256° West 256 295 24,000 120 Climbing Seattle Center
05:02PM 46.1808 -118.2744 259° West 257 296 24,000  Level Seattle Center
05:03PM 46.1644 -118.3750 257° West 257 296 24,000  Level Seattle Center
05:04PM 46.1483 -118.4736 257° West 257 296 24,000  Level Seattle Center
05:05PM 46.1347 -118.5664 258° West 257 296 24,000  Level Seattle Center
05:06PM 46.1164 -118.6644 255° West 257 296 24,000  Level Seattle Center
05:07PM 46.1039 -118.6311 256° West  Level FlightAware Approximate
05:07PM 46.0992 -118.7622 256° West 256 295 24,000  Level Seattle Center
05:08PM 46.0783 -118.8819 256° West 256 295 24,000  Level Seattle Center
05:10PM 46.0614 -118.9803 256° West 256 295 24,000  Level Seattle Center
05:12PM 46.0219 -119.1789 253° West 258 297 24,000 -60 Level Seattle Center
05:13PM 46.0056 -119.2789 257° West 258 297 23,900  Descending Seattle Center
05:14PM 45.9883 -119.3808 256° West 259 298 24,000  Climbing Seattle Center
05:15PM 45.9689 -119.4769 254° West 258 297 24,000  Level Seattle Center
05:16PM 45.9494 -119.5744 254° West 257 296 24,000  Level Seattle Center
05:17PM 45.9322 -119.6747 256° West 257 296 24,000  Level Seattle Center
05:18PM 45.9108 -119.7936 256° West 258 297 24,000  Level Seattle Center
05:19PM 45.8911 -119.8917 254° West 258 297 24,000  Level Seattle Center
05:20PM 45.8722 -119.9928 255° West 258 297 24,000  Level Seattle Center
05:21PM 45.8533 -120.0922 255° West 259 298 24,000  Level Seattle Center
05:23PM 45.8131 -120.2883 254° West 258 297 24,000  Level Seattle Center
05:24PM 45.7939 -120.3853 254° West 258 297 24,000  Level Seattle Center
05:25PM 45.7758 -120.4844 255° West 258 297 24,000  Level Seattle Center
05:26PM 45.7533 -120.6028 255° West 258 297 24,000  Level Seattle Center
05:27PM 45.7344 -120.6997 254° West 257 296 24,000  Level Seattle Center
05:30PM 45.6775 -120.9914 250° West 256 295 24,000 -180 Level Seattle Center
05:31PM 45.6594 -121.0897 255° West 256 295 23,500 -1,080 Descending Seattle Center
05:32PM 45.6381 -121.1925 253° West 267 307 21,800 -1,920 Descending Seattle Center
05:33PM 45.6131 -121.3086 253° West 285 328 19,800 -1,740 Descending Seattle Center
05:34PM 45.5911 -121.4075 252° West 284 327 18,300 -1,740 Descending Seattle Center
05:35PM 45.5647 -121.5308 253° West 275 316 16,200 -1,440 Descending Seattle Center
05:36PM 45.5542 -121.5944 257° West 266 306 16,000 -420 Descending Seattle Center
05:36PM 45.5458 -121.6294 251° West 261 300 15,800 -1,020 Descending Seattle Center
05:37PM 45.5369 -121.6883 258° West 247 284 15,000 -1,380 Descending Seattle Center
05:37PM 45.5361 -121.7278 268° West 254 292 14,400 -1,560 Descending Seattle Center
05:38PM 45.5356 -121.7850 269° West 261 300 13,600 -1,620 Descending Seattle Center
05:38PM 45.5336 -121.8397 267° West 261 300 12,800 -1,560 Descending Seattle Center
05:39PM 45.5258 -121.8942 258° West 265 305 11,900 -1,740 Descending Seattle Center
05:40PM 45.5156 -122.0417 264° West 257 296 9,300 -1,860 Descending Seattle Center
05:41PM 45.5128 -122.1036 266° West 250 288 8,200 -1,800 Descending Seattle Center
05:41PM 45.5106 -122.1400 265° West 252 290 7,500 -1,740 Descending Seattle Center
05:42PM 45.5028 -122.2450 264° West 250 288 5,700 -1,920 Descending Seattle Center
05:43PM 45.4986 -122.2883 262° West 245 282 4,800 -1,680 Descending Seattle Center
05:43PM 45.4972 -122.3403 268° West 245 282 4,000 -720 Descending Seattle Center
05:44PM 45.4933 -122.3894 264° West 230 265 4,000  Level Seattle Center
05:45PM 45.4864 -122.4722 263° West 196 226 4,000  Level Seattle Center
05:45PM 45.4842 -122.5019 264° West 199 229 4,000  Level Seattle Center
05:46PM 45.4839 -122.5350 269° West 180 207 4,000  Level Seattle Center
05:46PM 45.4825 -122.5772 267° West 174 200 4,000  Level Seattle Center
05:47PM 45.4792 -122.6078 261° West 164 189 4,000 -540 Level Seattle Center
05:47PM 45.4769 -122.6433 265° West 169 194 3,500 -600 Descending Seattle Center
05:49PM 45.4464 -122.7258 242° Southwest 146 168 2,900 -480 Descending Seattle Center
05:49PM 45.4314 -122.7353 204° Southwest 145 167 2,600 -300 Descending Seattle Center
05:50PM 45.4106 -122.7403 190° South 132 152 2,600  Level Seattle Center
05:50PM 45.3931 -122.7436 188° South 130 150 2,600  Level Seattle Center
05:51PM 45.3792 -122.7469 190° South 112 129 2,600  Level Seattle Center
05:51PM 45.3650 -122.7478 182° South 107 123 2,600 -960 Level Seattle Center
05:52PM 45.3336 -122.7569 192° South 116 133 1,200 -1,080 Descending Seattle Center
05:53PM 45.3208 -122.7581 183° South 131 151 1,000 -300 Descending Seattle Center
05:53PM 45.3008 -122.7603 184° South 117 135 900 -240 Descending Seattle Center
05:54PM 45.2719 -122.7658 188° South 115 132 700 -360 Descending Seattle Center
05:55PM 45.2500 -122.7686 185° South 100 115 200 -540 Descending Seattle Center